sensor_id;sensor_type;location;lat;lon;timestamp;P1;durP1;ratioP1;P2;durP2;ratioP2
79478;SDS011;68943;49.472;17.970;2023-10-19T00:00:40;17.85;;;9.95;;
79478;SDS011;68943;49.472;17.970;2023-10-19T00:03:09;18.38;;;10.23;;
79478;SDS011;68943;49.472;17.970;2023-10-19T00:05:36;21.35;;;11.05;;
79478;SDS011;68943;49.472;17.970;2023-10-19T00:08:04;24.17;;;10.23;;
79478;SDS011;68943;49.472;17.970;2023-10-19T00:10:32;18.08;;;10.57;;
79478;SDS011;68943;49.472;17.970;2023-10-19T00:13:00;17.10;;;9.85;;
79478;SDS011;68943;49.472;17.970;2023-10-19T00:15:29;21.33;;;10.07;;
79478;SDS011;68943;49.472;17.970;2023-10-19T00:17:57;22.33;;;10.15;;
79478;SDS011;68943;49.472;17.970;2023-10-19T00:20:45;19.52;;;9.38;;
79478;SDS011;68943;49.472;17.970;2023-10-19T00:23:14;21.25;;;10.98;;
79478;SDS011;68943;49.472;17.970;2023-10-19T00:25:46;17.98;;;10.27;;
79478;SDS011;68943;49.472;17.970;2023-10-19T00:28:18;17.33;;;11.50;;
79478;SDS011;68943;49.472;17.970;2023-10-19T00:30:44;19.52;;;10.65;;
79478;SDS011;68943;49.472;17.970;2023-10-19T00:33:13;18.98;;;10.40;;
79478;SDS011;68943;49.472;17.970;2023-10-19T00:35:43;20.63;;;10.02;;
79478;SDS011;68943;49.472;17.970;2023-10-19T00:38:15;21.35;;;11.07;;
79478;SDS011;68943;49.472;17.970;2023-10-19T00:41:00;20.33;;;10.40;;
79478;SDS011;68943;49.472;17.970;2023-10-19T00:43:35;19.65;;;10.02;;
79478;SDS011;68943;49.472;17.970;2023-10-19T00:46:03;17.60;;;10.40;;
79478;SDS011;68943;49.472;17.970;2023-10-19T00:48:36;18.25;;;10.40;;
79478;SDS011;68943;49.472;17.970;2023-10-19T00:51:04;21.52;;;12.18;;
79478;SDS011;68943;49.472;17.970;2023-10-19T00:53:49;18.42;;;10.90;;
79478;SDS011;68943;49.472;17.970;2023-10-19T00:56:16;18.13;;;9.52;;
79478;SDS011;68943;49.472;17.970;2023-10-19T00:58:44;23.25;;;10.50;;
79478;SDS011;68943;49.472;17.970;2023-10-19T01:01:19;19.52;;;9.73;;
79478;SDS011;68943;49.472;17.970;2023-10-19T01:03:49;18.33;;;9.98;;
79478;SDS011;68943;49.472;17.970;2023-10-19T01:06:21;17.65;;;10.10;;
79478;SDS011;68943;49.472;17.970;2023-10-19T01:08:47;17.38;;;9.52;;
79478;SDS011;68943;49.472;17.970;2023-10-19T01:11:16;16.92;;;9.60;;
79478;SDS011;68943;49.472;17.970;2023-10-19T01:13:45;17.30;;;10.60;;
79478;SDS011;68943;49.472;17.970;2023-10-19T01:16:12;17.77;;;10.50;;
79478;SDS011;68943;49.472;17.970;2023-10-19T01:18:45;17.35;;;9.50;;
79478;SDS011;68943;49.472;17.970;2023-10-19T01:21:11;20.42;;;10.60;;
79478;SDS011;68943;49.472;17.970;2023-10-19T01:23:37;15.85;;;9.07;;
79478;SDS011;68943;49.472;17.970;2023-10-19T01:26:04;16.27;;;9.02;;
79478;SDS011;68943;49.472;17.970;2023-10-19T01:28:35;16.08;;;10.13;;
79478;SDS011;68943;49.472;17.970;2023-10-19T01:33:45;15.65;;;9.63;;
79478;SDS011;68943;49.472;17.970;2023-10-19T01:36:11;20.40;;;8.55;;
79478;SDS011;68943;49.472;17.970;2023-10-19T01:38:46;13.52;;;7.95;;
79478;SDS011;68943;49.472;17.970;2023-10-19T01:41:12;14.70;;;8.57;;
79478;SDS011;68943;49.472;17.970;2023-10-19T01:43:42;16.65;;;7.75;;
79478;SDS011;68943;49.472;17.970;2023-10-19T01:48:41;14.60;;;8.48;;
79478;SDS011;68943;49.472;17.970;2023-10-19T01:51:07;15.48;;;8.23;;
79478;SDS011;68943;49.472;17.970;2023-10-19T01:53:38;11.23;;;6.55;;
79478;SDS011;68943;49.472;17.970;2023-10-19T01:56:08;17.10;;;7.68;;
79478;SDS011;68943;49.472;17.970;2023-10-19T01:58:38;14.63;;;7.40;;
79478;SDS011;68943;49.472;17.970;2023-10-19T02:01:08;11.35;;;6.75;;
79478;SDS011;68943;49.472;17.970;2023-10-19T02:03:37;14.88;;;6.72;;
79478;SDS011;68943;49.472;17.970;2023-10-19T02:06:13;17.80;;;8.32;;
79478;SDS011;68943;49.472;17.970;2023-10-19T02:08:51;13.43;;;7.95;;
79478;SDS011;68943;49.472;17.970;2023-10-19T02:11:22;15.20;;;8.52;;
79478;SDS011;68943;49.472;17.970;2023-10-19T02:13:49;15.35;;;8.88;;
79478;SDS011;68943;49.472;17.970;2023-10-19T02:16:16;12.43;;;8.98;;
79478;SDS011;68943;49.472;17.970;2023-10-19T02:18:45;15.85;;;7.03;;
79478;SDS011;68943;49.472;17.970;2023-10-19T02:21:11;10.48;;;6.72;;
79478;SDS011;68943;49.472;17.970;2023-10-19T02:23:38;15.73;;;9.50;;
79478;SDS011;68943;49.472;17.970;2023-10-19T02:26:06;16.80;;;8.98;;
79478;SDS011;68943;49.472;17.970;2023-10-19T02:28:36;13.95;;;7.93;;
79478;SDS011;68943;49.472;17.970;2023-10-19T02:31:05;13.93;;;8.27;;
79478;SDS011;68943;49.472;17.970;2023-10-19T02:33:41;10.88;;;6.85;;
79478;SDS011;68943;49.472;17.970;2023-10-19T02:36:11;13.48;;;7.85;;
79478;SDS011;68943;49.472;17.970;2023-10-19T02:38:44;14.13;;;7.97;;
79478;SDS011;68943;49.472;17.970;2023-10-19T02:41:15;11.27;;;7.00;;
79478;SDS011;68943;49.472;17.970;2023-10-19T02:43:45;15.48;;;7.40;;
79478;SDS011;68943;49.472;17.970;2023-10-19T02:46:15;12.55;;;7.18;;
79478;SDS011;68943;49.472;17.970;2023-10-19T02:48:43;15.35;;;7.30;;
79478;SDS011;68943;49.472;17.970;2023-10-19T02:51:15;16.02;;;9.10;;
79478;SDS011;68943;49.472;17.970;2023-10-19T02:53:44;15.13;;;8.68;;
79478;SDS011;68943;49.472;17.970;2023-10-19T02:56:11;15.27;;;8.25;;
79478;SDS011;68943;49.472;17.970;2023-10-19T02:58:39;14.88;;;7.45;;
79478;SDS011;68943;49.472;17.970;2023-10-19T03:01:11;12.68;;;8.02;;
79478;SDS011;68943;49.472;17.970;2023-10-19T03:03:37;12.25;;;7.70;;
79478;SDS011;68943;49.472;17.970;2023-10-19T03:06:03;13.63;;;7.53;;
79478;SDS011;68943;49.472;17.970;2023-10-19T03:08:31;15.50;;;8.98;;
79478;SDS011;68943;49.472;17.970;2023-10-19T03:10:57;14.77;;;7.93;;
79478;SDS011;68943;49.472;17.970;2023-10-19T03:13:29;12.98;;;7.00;;
79478;SDS011;68943;49.472;17.970;2023-10-19T03:16:01;15.57;;;8.43;;
79478;SDS011;68943;49.472;17.970;2023-10-19T03:18:32;11.50;;;8.32;;
79478;SDS011;68943;49.472;17.970;2023-10-19T03:20:59;13.98;;;7.63;;
79478;SDS011;68943;49.472;17.970;2023-10-19T03:23:26;14.68;;;8.52;;
79478;SDS011;68943;49.472;17.970;2023-10-19T03:25:56;14.35;;;8.30;;
79478;SDS011;68943;49.472;17.970;2023-10-19T03:31:08;13.90;;;8.18;;
79478;SDS011;68943;49.472;17.970;2023-10-19T03:33:42;13.35;;;7.82;;
79478;SDS011;68943;49.472;17.970;2023-10-19T03:36:09;13.32;;;7.85;;
79478;SDS011;68943;49.472;17.970;2023-10-19T03:38:38;12.23;;;8.18;;
79478;SDS011;68943;49.472;17.970;2023-10-19T03:41:06;13.45;;;8.07;;
79478;SDS011;68943;49.472;17.970;2023-10-19T03:43:34;12.90;;;7.50;;
79478;SDS011;68943;49.472;17.970;2023-10-19T03:46:03;14.88;;;8.20;;
79478;SDS011;68943;49.472;17.970;2023-10-19T03:48:39;15.75;;;7.82;;
79478;SDS011;68943;49.472;17.970;2023-10-19T03:51:05;10.57;;;6.50;;
79478;SDS011;68943;49.472;17.970;2023-10-19T03:53:37;13.23;;;6.57;;
79478;SDS011;68943;49.472;17.970;2023-10-19T03:56:04;10.18;;;6.25;;
79478;SDS011;68943;49.472;17.970;2023-10-19T03:58:35;9.73;;;6.22;;
79478;SDS011;68943;49.472;17.970;2023-10-19T04:01:06;8.27;;;5.68;;
79478;SDS011;68943;49.472;17.970;2023-10-19T04:03:32;8.75;;;5.90;;
79478;SDS011;68943;49.472;17.970;2023-10-19T04:05:59;11.40;;;5.57;;
79478;SDS011;68943;49.472;17.970;2023-10-19T04:08:26;8.77;;;4.45;;
79478;SDS011;68943;49.472;17.970;2023-10-19T04:10:57;9.88;;;5.13;;
79478;SDS011;68943;49.472;17.970;2023-10-19T04:13:35;9.00;;;5.45;;
79478;SDS011;68943;49.472;17.970;2023-10-19T04:16:04;7.38;;;5.35;;
79478;SDS011;68943;49.472;17.970;2023-10-19T04:18:35;7.82;;;5.13;;
79478;SDS011;68943;49.472;17.970;2023-10-19T04:21:08;6.25;;;4.78;;
79478;SDS011;68943;49.472;17.970;2023-10-19T04:23:35;8.02;;;4.70;;
79478;SDS011;68943;49.472;17.970;2023-10-19T04:26:02;9.02;;;4.88;;
79478;SDS011;68943;49.472;17.970;2023-10-19T04:28:36;10.52;;;5.30;;
79478;SDS011;68943;49.472;17.970;2023-10-19T04:31:15;8.15;;;4.50;;
79478;SDS011;68943;49.472;17.970;2023-10-19T04:33:41;7.88;;;5.75;;
79478;SDS011;68943;49.472;17.970;2023-10-19T04:36:11;7.25;;;4.18;;
79478;SDS011;68943;49.472;17.970;2023-10-19T04:38:37;8.52;;;5.43;;
79478;SDS011;68943;49.472;17.970;2023-10-19T04:41:07;8.57;;;5.07;;
79478;SDS011;68943;49.472;17.970;2023-10-19T04:43:34;12.00;;;5.50;;
79478;SDS011;68943;49.472;17.970;2023-10-19T04:46:04;9.80;;;5.25;;
79478;SDS011;68943;49.472;17.970;2023-10-19T04:48:33;7.70;;;5.18;;
79478;SDS011;68943;49.472;17.970;2023-10-19T04:51:00;13.15;;;5.00;;
79478;SDS011;68943;49.472;17.970;2023-10-19T04:53:26;11.80;;;6.00;;
79478;SDS011;68943;49.472;17.970;2023-10-19T04:55:52;8.95;;;5.43;;
79478;SDS011;68943;49.472;17.970;2023-10-19T04:58:19;12.00;;;5.15;;
79478;SDS011;68943;49.472;17.970;2023-10-19T05:00:45;11.45;;;5.30;;
79478;SDS011;68943;49.472;17.970;2023-10-19T05:03:11;13.20;;;5.53;;
79478;SDS011;68943;49.472;17.970;2023-10-19T05:05:43;7.55;;;5.97;;
79478;SDS011;68943;49.472;17.970;2023-10-19T05:08:09;9.77;;;4.93;;
79478;SDS011;68943;49.472;17.970;2023-10-19T05:10:35;8.60;;;5.65;;
79478;SDS011;68943;49.472;17.970;2023-10-19T05:13:02;8.18;;;5.60;;
79478;SDS011;68943;49.472;17.970;2023-10-19T05:15:28;10.23;;;7.82;;
79478;SDS011;68943;49.472;17.970;2023-10-19T05:17:54;9.13;;;5.57;;
79478;SDS011;68943;49.472;17.970;2023-10-19T05:20:21;10.68;;;5.55;;
79478;SDS011;68943;49.472;17.970;2023-10-19T05:22:48;9.10;;;6.50;;
79478;SDS011;68943;49.472;17.970;2023-10-19T05:25:14;9.25;;;5.63;;
79478;SDS011;68943;49.472;17.970;2023-10-19T05:27:41;9.13;;;5.55;;
79478;SDS011;68943;49.472;17.970;2023-10-19T05:30:07;12.95;;;7.53;;
79478;SDS011;68943;49.472;17.970;2023-10-19T05:32:36;10.98;;;7.10;;
79478;SDS011;68943;49.472;17.970;2023-10-19T05:35:03;9.70;;;6.05;;
79478;SDS011;68943;49.472;17.970;2023-10-19T05:37:30;10.68;;;6.53;;
79478;SDS011;68943;49.472;17.970;2023-10-19T05:39:56;8.77;;;6.65;;
79478;SDS011;68943;49.472;17.970;2023-10-19T05:42:23;10.43;;;6.40;;
79478;SDS011;68943;49.472;17.970;2023-10-19T05:44:50;11.25;;;6.45;;
79478;SDS011;68943;49.472;17.970;2023-10-19T05:47:16;12.52;;;7.72;;
79478;SDS011;68943;49.472;17.970;2023-10-19T05:49:44;9.93;;;6.60;;
79478;SDS011;68943;49.472;17.970;2023-10-19T05:52:10;10.68;;;6.13;;
79478;SDS011;68943;49.472;17.970;2023-10-19T05:54:36;10.88;;;7.90;;
79478;SDS011;68943;49.472;17.970;2023-10-19T05:57:02;10.13;;;7.55;;
79478;SDS011;68943;49.472;17.970;2023-10-19T05:59:33;13.20;;;10.38;;
79478;SDS011;68943;49.472;17.970;2023-10-19T06:01:59;16.15;;;11.75;;
79478;SDS011;68943;49.472;17.970;2023-10-19T06:04:25;11.73;;;9.27;;
79478;SDS011;68943;49.472;17.970;2023-10-19T06:06:51;12.98;;;7.82;;
79478;SDS011;68943;49.472;17.970;2023-10-19T06:09:17;9.23;;;6.95;;
79478;SDS011;68943;49.472;17.970;2023-10-19T06:11:44;9.75;;;7.38;;
79478;SDS011;68943;49.472;17.970;2023-10-19T06:14:10;10.23;;;7.57;;
79478;SDS011;68943;49.472;17.970;2023-10-19T06:16:38;10.48;;;7.47;;
79478;SDS011;68943;49.472;17.970;2023-10-19T06:19:04;13.27;;;8.23;;
79478;SDS011;68943;49.472;17.970;2023-10-19T06:21:30;11.38;;;7.30;;
79478;SDS011;68943;49.472;17.970;2023-10-19T06:23:57;12.55;;;8.05;;
79478;SDS011;68943;49.472;17.970;2023-10-19T06:26:24;12.63;;;6.65;;
79478;SDS011;68943;49.472;17.970;2023-10-19T06:28:50;12.05;;;6.35;;
79478;SDS011;68943;49.472;17.970;2023-10-19T06:31:16;13.07;;;8.38;;
79478;SDS011;68943;49.472;17.970;2023-10-19T06:33:42;13.35;;;7.95;;
79478;SDS011;68943;49.472;17.970;2023-10-19T06:36:08;14.93;;;8.07;;
79478;SDS011;68943;49.472;17.970;2023-10-19T06:38:35;10.88;;;7.75;;
79478;SDS011;68943;49.472;17.970;2023-10-19T06:41:09;12.95;;;8.25;;
79478;SDS011;68943;49.472;17.970;2023-10-19T06:43:36;10.23;;;7.28;;
79478;SDS011;68943;49.472;17.970;2023-10-19T06:46:02;15.93;;;9.25;;
79478;SDS011;68943;49.472;17.970;2023-10-19T06:48:28;11.02;;;7.50;;
79478;SDS011;68943;49.472;17.970;2023-10-19T06:50:55;12.20;;;7.85;;
79478;SDS011;68943;49.472;17.970;2023-10-19T06:53:22;12.45;;;8.32;;
79478;SDS011;68943;49.472;17.970;2023-10-19T06:55:48;13.23;;;8.52;;
79478;SDS011;68943;49.472;17.970;2023-10-19T06:58:14;13.38;;;8.32;;
79478;SDS011;68943;49.472;17.970;2023-10-19T07:00:44;13.90;;;9.43;;
79478;SDS011;68943;49.472;17.970;2023-10-19T07:03:18;10.98;;;7.60;;
79478;SDS011;68943;49.472;17.970;2023-10-19T07:05:44;11.40;;;9.10;;
79478;SDS011;68943;49.472;17.970;2023-10-19T07:08:10;9.73;;;7.15;;
79478;SDS011;68943;49.472;17.970;2023-10-19T07:10:37;13.40;;;9.02;;
79478;SDS011;68943;49.472;17.970;2023-10-19T07:13:03;13.50;;;9.23;;
79478;SDS011;68943;49.472;17.970;2023-10-19T07:15:30;11.02;;;7.78;;
79478;SDS011;68943;49.472;17.970;2023-10-19T07:17:58;11.82;;;7.82;;
79478;SDS011;68943;49.472;17.970;2023-10-19T07:20:26;12.93;;;8.90;;
79478;SDS011;68943;49.472;17.970;2023-10-19T07:23:01;12.75;;;9.10;;
79478;SDS011;68943;49.472;17.970;2023-10-19T07:25:49;15.85;;;9.57;;
79478;SDS011;68943;49.472;17.970;2023-10-19T07:28:21;14.32;;;8.95;;
79478;SDS011;68943;49.472;17.970;2023-10-19T07:30:47;11.60;;;8.32;;
79478;SDS011;68943;49.472;17.970;2023-10-19T07:33:14;13.13;;;8.43;;
79478;SDS011;68943;49.472;17.970;2023-10-19T07:35:46;11.68;;;8.55;;
79478;SDS011;68943;49.472;17.970;2023-10-19T07:38:33;12.82;;;8.55;;
79478;SDS011;68943;49.472;17.970;2023-10-19T07:41:01;14.10;;;8.32;;
79478;SDS011;68943;49.472;17.970;2023-10-19T07:43:27;13.70;;;8.52;;
79478;SDS011;68943;49.472;17.970;2023-10-19T07:45:53;13.63;;;7.85;;
79478;SDS011;68943;49.472;17.970;2023-10-19T07:48:21;11.90;;;8.27;;
79478;SDS011;68943;49.472;17.970;2023-10-19T07:50:48;13.25;;;8.98;;
79478;SDS011;68943;49.472;17.970;2023-10-19T07:53:14;12.70;;;7.57;;
79478;SDS011;68943;49.472;17.970;2023-10-19T07:55:42;12.18;;;8.48;;
79478;SDS011;68943;49.472;17.970;2023-10-19T07:58:08;13.20;;;8.50;;
79478;SDS011;68943;49.472;17.970;2023-10-19T08:00:37;13.95;;;8.02;;
79478;SDS011;68943;49.472;17.970;2023-10-19T08:03:04;13.73;;;8.25;;
79478;SDS011;68943;49.472;17.970;2023-10-19T08:05:34;10.80;;;8.70;;
79478;SDS011;68943;49.472;17.970;2023-10-19T08:08:18;14.85;;;9.85;;
79478;SDS011;68943;49.472;17.970;2023-10-19T08:10:49;10.82;;;7.78;;
79478;SDS011;68943;49.472;17.970;2023-10-19T08:13:16;14.65;;;9.60;;
79478;SDS011;68943;49.472;17.970;2023-10-19T08:15:42;13.02;;;9.27;;
79478;SDS011;68943;49.472;17.970;2023-10-19T08:18:08;14.05;;;8.15;;
79478;SDS011;68943;49.472;17.970;2023-10-19T08:20:37;13.32;;;8.98;;
79478;SDS011;68943;49.472;17.970;2023-10-19T08:23:03;12.75;;;8.77;;
79478;SDS011;68943;49.472;17.970;2023-10-19T08:25:30;12.13;;;8.30;;
79478;SDS011;68943;49.472;17.970;2023-10-19T08:27:57;12.88;;;8.63;;
79478;SDS011;68943;49.472;17.970;2023-10-19T08:30:23;11.60;;;8.73;;
79478;SDS011;68943;49.472;17.970;2023-10-19T08:32:51;18.27;;;8.30;;
79478;SDS011;68943;49.472;17.970;2023-10-19T08:35:17;14.45;;;9.45;;
79478;SDS011;68943;49.472;17.970;2023-10-19T08:37:46;14.13;;;8.45;;
79478;SDS011;68943;49.472;17.970;2023-10-19T08:40:12;13.75;;;8.30;;
79478;SDS011;68943;49.472;17.970;2023-10-19T08:42:42;12.30;;;8.10;;
79478;SDS011;68943;49.472;17.970;2023-10-19T08:45:10;12.50;;;8.23;;
79478;SDS011;68943;49.472;17.970;2023-10-19T08:47:51;15.05;;;9.48;;
79478;SDS011;68943;49.472;17.970;2023-10-19T08:50:25;16.50;;;9.48;;
79478;SDS011;68943;49.472;17.970;2023-10-19T08:52:55;15.77;;;8.60;;
79478;SDS011;68943;49.472;17.970;2023-10-19T08:55:21;13.73;;;9.43;;
79478;SDS011;68943;49.472;17.970;2023-10-19T08:57:48;17.60;;;9.95;;
79478;SDS011;68943;49.472;17.970;2023-10-19T09:00:15;14.70;;;10.52;;
79478;SDS011;68943;49.472;17.970;2023-10-19T09:02:45;11.32;;;8.45;;
79478;SDS011;68943;49.472;17.970;2023-10-19T09:05:11;19.83;;;10.25;;
79478;SDS011;68943;49.472;17.970;2023-10-19T09:07:54;15.70;;;8.65;;
79478;SDS011;68943;49.472;17.970;2023-10-19T09:10:21;17.45;;;9.85;;
79478;SDS011;68943;49.472;17.970;2023-10-19T09:13:03;17.88;;;9.80;;
79478;SDS011;68943;49.472;17.970;2023-10-19T09:15:33;16.40;;;10.30;;
79478;SDS011;68943;49.472;17.970;2023-10-19T09:18:13;19.42;;;10.20;;
79478;SDS011;68943;49.472;17.970;2023-10-19T09:20:40;14.05;;;9.05;;
79478;SDS011;68943;49.472;17.970;2023-10-19T09:23:23;17.15;;;9.70;;
79478;SDS011;68943;49.472;17.970;2023-10-19T09:25:50;14.43;;;9.95;;
79478;SDS011;68943;49.472;17.970;2023-10-19T09:28:20;16.92;;;9.32;;
79478;SDS011;68943;49.472;17.970;2023-10-19T09:30:46;16.75;;;9.63;;
79478;SDS011;68943;49.472;17.970;2023-10-19T09:33:13;15.05;;;10.32;;
79478;SDS011;68943;49.472;17.970;2023-10-19T09:35:46;14.82;;;9.57;;
79478;SDS011;68943;49.472;17.970;2023-10-19T09:38:16;12.98;;;9.82;;
79478;SDS011;68943;49.472;17.970;2023-10-19T09:40:50;16.70;;;9.32;;
79478;SDS011;68943;49.472;17.970;2023-10-19T09:43:21;14.65;;;9.02;;
79478;SDS011;68943;49.472;17.970;2023-10-19T09:45:51;13.43;;;9.52;;
79478;SDS011;68943;49.472;17.970;2023-10-19T09:48:19;16.48;;;9.68;;
79478;SDS011;68943;49.472;17.970;2023-10-19T09:50:49;16.45;;;10.32;;
79478;SDS011;68943;49.472;17.970;2023-10-19T09:53:19;15.75;;;10.15;;
79478;SDS011;68943;49.472;17.970;2023-10-19T09:55:46;14.60;;;9.48;;
79478;SDS011;68943;49.472;17.970;2023-10-19T09:58:17;14.30;;;9.88;;
79478;SDS011;68943;49.472;17.970;2023-10-19T10:00:45;12.60;;;8.88;;
79478;SDS011;68943;49.472;17.970;2023-10-19T10:05:57;15.27;;;8.90;;
79478;SDS011;68943;49.472;17.970;2023-10-19T10:10:51;15.48;;;9.52;;
79478;SDS011;68943;49.472;17.970;2023-10-19T10:13:38;18.65;;;10.23;;
79478;SDS011;68943;49.472;17.970;2023-10-19T10:16:03;17.40;;;10.20;;
79478;SDS011;68943;49.472;17.970;2023-10-19T10:18:30;17.85;;;10.43;;
79478;SDS011;68943;49.472;17.970;2023-10-19T10:23:45;12.45;;;9.70;;
79478;SDS011;68943;49.472;17.970;2023-10-19T10:26:13;15.65;;;11.05;;
79478;SDS011;68943;49.472;17.970;2023-10-19T10:28:45;13.57;;;9.30;;
79478;SDS011;68943;49.472;17.970;2023-10-19T10:31:22;17.38;;;10.77;;
79478;SDS011;68943;49.472;17.970;2023-10-19T10:33:52;17.08;;;9.82;;
79478;SDS011;68943;49.472;17.970;2023-10-19T10:36:22;15.75;;;10.25;;
79478;SDS011;68943;49.472;17.970;2023-10-19T10:38:49;14.73;;;9.77;;
79478;SDS011;68943;49.472;17.970;2023-10-19T10:43:50;17.05;;;11.35;;
79478;SDS011;68943;49.472;17.970;2023-10-19T10:46:18;15.52;;;10.00;;
79478;SDS011;68943;49.472;17.970;2023-10-19T10:48:44;16.58;;;9.95;;
79478;SDS011;68943;49.472;17.970;2023-10-19T10:51:17;17.88;;;13.23;;
79478;SDS011;68943;49.472;17.970;2023-10-19T10:53:48;15.50;;;9.95;;
79478;SDS011;68943;49.472;17.970;2023-10-19T10:56:15;17.95;;;11.30;;
79478;SDS011;68943;49.472;17.970;2023-10-19T10:58:42;16.80;;;10.75;;
79478;SDS011;68943;49.472;17.970;2023-10-19T11:01:08;30.92;;;16.98;;
79478;SDS011;68943;49.472;17.970;2023-10-19T11:03:35;17.17;;;10.10;;
79478;SDS011;68943;49.472;17.970;2023-10-19T11:06:07;16.58;;;10.70;;
79478;SDS011;68943;49.472;17.970;2023-10-19T11:08:34;15.57;;;11.30;;
79478;SDS011;68943;49.472;17.970;2023-10-19T11:11:02;16.98;;;10.70;;
79478;SDS011;68943;49.472;17.970;2023-10-19T11:13:29;16.42;;;10.93;;
79478;SDS011;68943;49.472;17.970;2023-10-19T11:15:58;14.88;;;9.65;;
79478;SDS011;68943;49.472;17.970;2023-10-19T11:18:36;14.95;;;10.10;;
79478;SDS011;68943;49.472;17.970;2023-10-19T11:21:09;15.55;;;9.23;;
79478;SDS011;68943;49.472;17.970;2023-10-19T11:23:36;13.73;;;8.60;;
79478;SDS011;68943;49.472;17.970;2023-10-19T11:26:02;13.25;;;9.65;;
79478;SDS011;68943;49.472;17.970;2023-10-19T11:28:30;15.07;;;9.98;;
79478;SDS011;68943;49.472;17.970;2023-10-19T11:33:57;14.95;;;9.55;;
79478;SDS011;68943;49.472;17.970;2023-10-19T11:36:26;15.57;;;9.18;;
79478;SDS011;68943;49.472;17.970;2023-10-19T11:38:52;14.30;;;9.32;;
79478;SDS011;68943;49.472;17.970;2023-10-19T11:41:19;15.70;;;9.65;;
79478;SDS011;68943;49.472;17.970;2023-10-19T11:46:45;15.10;;;9.65;;
79478;SDS011;68943;49.472;17.970;2023-10-19T11:49:11;14.15;;;9.48;;
79478;SDS011;68943;49.472;17.970;2023-10-19T11:51:37;14.30;;;9.55;;
79478;SDS011;68943;49.472;17.970;2023-10-19T11:54:06;12.82;;;9.00;;
79478;SDS011;68943;49.472;17.970;2023-10-19T11:59:01;14.23;;;8.88;;
79478;SDS011;68943;49.472;17.970;2023-10-19T12:01:27;11.65;;;8.20;;
79478;SDS011;68943;49.472;17.970;2023-10-19T12:03:54;12.77;;;9.60;;
79478;SDS011;68943;49.472;17.970;2023-10-19T12:06:21;12.90;;;8.20;;
79478;SDS011;68943;49.472;17.970;2023-10-19T12:08:49;13.45;;;8.55;;
79478;SDS011;68943;49.472;17.970;2023-10-19T12:11:16;10.68;;;8.00;;
79478;SDS011;68943;49.472;17.970;2023-10-19T12:13:44;13.10;;;8.50;;
79478;SDS011;68943;49.472;17.970;2023-10-19T12:16:11;12.75;;;8.30;;
79478;SDS011;68943;49.472;17.970;2023-10-19T12:18:46;11.18;;;7.63;;
79478;SDS011;68943;49.472;17.970;2023-10-19T12:21:14;14.52;;;9.32;;
79478;SDS011;68943;49.472;17.970;2023-10-19T12:23:43;10.82;;;7.32;;
79478;SDS011;68943;49.472;17.970;2023-10-19T12:26:09;15.73;;;8.60;;
79478;SDS011;68943;49.472;17.970;2023-10-19T12:28:37;10.88;;;8.38;;
79478;SDS011;68943;49.472;17.970;2023-10-19T12:34:10;10.75;;;7.15;;
79478;SDS011;68943;49.472;17.970;2023-10-19T12:36:43;12.23;;;7.80;;
79478;SDS011;68943;49.472;17.970;2023-10-19T12:39:11;14.05;;;7.65;;
79478;SDS011;68943;49.472;17.970;2023-10-19T12:41:57;14.13;;;7.75;;
79478;SDS011;68943;49.472;17.970;2023-10-19T12:44:24;11.68;;;8.48;;
79478;SDS011;68943;49.472;17.970;2023-10-19T12:46:53;11.55;;;7.63;;
79478;SDS011;68943;49.472;17.970;2023-10-19T12:49:19;14.32;;;9.23;;
79478;SDS011;68943;49.472;17.970;2023-10-19T12:51:51;14.05;;;8.82;;
79478;SDS011;68943;49.472;17.970;2023-10-19T12:54:17;13.75;;;8.32;;
79478;SDS011;68943;49.472;17.970;2023-10-19T12:56:43;15.40;;;8.65;;
79478;SDS011;68943;49.472;17.970;2023-10-19T12:59:09;14.65;;;9.18;;
79478;SDS011;68943;49.472;17.970;2023-10-19T13:01:36;12.60;;;7.85;;
79478;SDS011;68943;49.472;17.970;2023-10-19T13:04:03;13.23;;;8.18;;
79478;SDS011;68943;49.472;17.970;2023-10-19T13:06:43;15.02;;;9.02;;
79478;SDS011;68943;49.472;17.970;2023-10-19T13:09:12;15.55;;;8.15;;
79478;SDS011;68943;49.472;17.970;2023-10-19T13:11:42;15.27;;;9.32;;
79478;SDS011;68943;49.472;17.970;2023-10-19T13:14:09;19.23;;;8.75;;
79478;SDS011;68943;49.472;17.970;2023-10-19T13:16:37;14.32;;;9.00;;
79478;SDS011;68943;49.472;17.970;2023-10-19T13:19:03;14.52;;;8.57;;
79478;SDS011;68943;49.472;17.970;2023-10-19T13:24:44;13.68;;;9.23;;
79478;SDS011;68943;49.472;17.970;2023-10-19T13:27:12;13.20;;;8.90;;
79478;SDS011;68943;49.472;17.970;2023-10-19T13:29:42;15.20;;;9.65;;
79478;SDS011;68943;49.472;17.970;2023-10-19T13:32:12;14.48;;;9.65;;
79478;SDS011;68943;49.472;17.970;2023-10-19T13:34:38;15.68;;;9.65;;
79478;SDS011;68943;49.472;17.970;2023-10-19T13:37:08;16.48;;;10.73;;
79478;SDS011;68943;49.472;17.970;2023-10-19T13:42:00;14.77;;;10.45;;
79478;SDS011;68943;49.472;17.970;2023-10-19T13:44:28;15.98;;;10.80;;
79478;SDS011;68943;49.472;17.970;2023-10-19T13:46:54;18.40;;;10.63;;
79478;SDS011;68943;49.472;17.970;2023-10-19T13:49:20;18.15;;;10.23;;
79478;SDS011;68943;49.472;17.970;2023-10-19T13:51:47;14.75;;;8.30;;
79478;SDS011;68943;49.472;17.970;2023-10-19T13:54:15;20.60;;;10.85;;
79478;SDS011;68943;49.472;17.970;2023-10-19T13:56:42;20.05;;;12.10;;
79478;SDS011;68943;49.472;17.970;2023-10-19T13:59:08;20.10;;;11.88;;
79478;SDS011;68943;49.472;17.970;2023-10-19T14:01:36;18.02;;;11.57;;
79478;SDS011;68943;49.472;17.970;2023-10-19T14:04:02;19.55;;;12.07;;
79478;SDS011;68943;49.472;17.970;2023-10-19T14:06:29;20.92;;;11.43;;
79478;SDS011;68943;49.472;17.970;2023-10-19T14:08:55;17.77;;;11.40;;
79478;SDS011;68943;49.472;17.970;2023-10-19T14:11:22;21.13;;;12.18;;
79478;SDS011;68943;49.472;17.970;2023-10-19T14:13:48;24.35;;;12.70;;
79478;SDS011;68943;49.472;17.970;2023-10-19T14:16:17;20.42;;;12.27;;
79478;SDS011;68943;49.472;17.970;2023-10-19T14:18:43;19.20;;;10.27;;
79478;SDS011;68943;49.472;17.970;2023-10-19T14:24:13;16.33;;;11.57;;
79478;SDS011;68943;49.472;17.970;2023-10-19T14:26:39;21.63;;;11.52;;
79478;SDS011;68943;49.472;17.970;2023-10-19T14:29:07;18.20;;;13.07;;
79478;SDS011;68943;49.472;17.970;2023-10-19T14:31:33;18.60;;;11.65;;
79478;SDS011;68943;49.472;17.970;2023-10-19T14:34:00;18.25;;;12.25;;
79478;SDS011;68943;49.472;17.970;2023-10-19T14:36:27;18.67;;;11.98;;
79478;SDS011;68943;49.472;17.970;2023-10-19T14:38:54;20.27;;;13.23;;
79478;SDS011;68943;49.472;17.970;2023-10-19T14:41:20;21.02;;;12.25;;
79478;SDS011;68943;49.472;17.970;2023-10-19T14:43:46;18.98;;;12.18;;
79478;SDS011;68943;49.472;17.970;2023-10-19T14:46:13;19.30;;;12.35;;
79478;SDS011;68943;49.472;17.970;2023-10-19T14:48:40;19.10;;;12.07;;
79478;SDS011;68943;49.472;17.970;2023-10-19T14:51:06;23.67;;;14.52;;
79478;SDS011;68943;49.472;17.970;2023-10-19T14:53:33;20.92;;;13.23;;
79478;SDS011;68943;49.472;17.970;2023-10-19T14:55:59;21.65;;;13.43;;
79478;SDS011;68943;49.472;17.970;2023-10-19T14:58:27;20.05;;;12.73;;
79478;SDS011;68943;49.472;17.970;2023-10-19T15:00:54;18.10;;;12.63;;
79478;SDS011;68943;49.472;17.970;2023-10-19T15:03:20;19.25;;;12.02;;
79478;SDS011;68943;49.472;17.970;2023-10-19T15:05:52;20.98;;;13.45;;